Time;durP1;ratioP1;P1;durP2;ratioP2;P2;SDS_P1;SDS_P2;PMS_P1;PMS_P2;Temp;Humidity;BMP_temperature;BMP_pressure;BME280_temperature;BME280_humidity;BME280_pressure;Samples;Min_cycle;Max_cycle;Signal;HPM_P1;HPM_P2
2023/12/11 00:00:27;;;;;;;42.45;4.55;;;;;;;;;;5081592;28;20058;-72
2023/12/11 00:02:55;;;;;;;39.28;3.17;;;;;;;;;;5090528;28;20131;-73
2023/12/11 00:05:22;;;;;;;43.40;4.50;;;;;;;;;;5100293;28;20048;-73
2023/12/11 00:07:49;;;;;;;40.42;5.40;;;;;;;;;;5090037;28;20058;-72
2023/12/11 00:10:18;;;;;;;47.22;4.35;;;;;;;;;;5102298;28;20051;-72
2023/12/11 00:12:45;;;;;;;41.00;4.05;;;;;;;;;;5085694;28;20052;-72
2023/12/11 00:15:13;;;;;;;41.78;4.10;;;;;;;;;;5089095;28;20055;-72
2023/12/11 00:17:40;;;;;;;31.73;3.97;;;;;;;;;;5107520;28;20092;-73
2023/12/11 00:20:09;;;;;;;52.15;4.70;;;;;;;;;;5100682;28;20036;-73
2023/12/11 00:22:36;;;;;;;42.70;4.93;;;;;;;;;;5105038;28;20067;-73
2023/12/11 00:25:03;;;;;;;43.97;4.18;;;;;;;;;;5102556;28;20475;-72
2023/12/11 00:27:32;;;;;;;39.20;4.57;;;;;;;;;;5106961;28;20534;-72
2023/12/11 00:29:59;;;;;;;39.40;5.20;;;;;;;;;;5105890;28;20051;-73
2023/12/11 00:32:27;;;;;;;45.60;4.63;;;;;;;;;;5099919;28;20042;-73
2023/12/11 00:34:54;;;;;;;38.00;3.92;;;;;;;;;;5104975;28;20102;-72
2023/12/11 00:37:22;;;;;;;41.42;3.63;;;;;;;;;;5103554;28;20055;-72
2023/12/11 00:39:49;;;;;;;39.97;3.83;;;;;;;;;;5078110;28;20142;-73
2023/12/11 00:42:16;;;;;;;44.53;4.32;;;;;;;;;;5086645;28;20134;-72
2023/12/11 00:44:45;;;;;;;41.03;4.20;;;;;;;;;;5084841;28;20046;-73
2023/12/11 00:47:12;;;;;;;39.13;3.75;;;;;;;;;;5102379;28;20053;-72
2023/12/11 00:49:40;;;;;;;37.63;5.15;;;;;;;;;;5106597;28;20044;-73
2023/12/11 00:52:07;;;;;;;43.33;4.32;;;;;;;;;;5103958;28;20040;-74
2023/12/11 00:54:34;;;;;;;49.47;5.05;;;;;;;;;;5103633;28;20056;-73
2023/12/11 00:57:02;;;;;;;35.67;3.50;;;;;;;;;;5099577;28;20055;-73
2023/12/11 00:59:29;;;;;;;44.22;4.35;;;;;;;;;;5103482;28;20043;-73
2023/12/11 01:01:58;;;;;;;34.83;4.00;;;;;;;;;;5078378;28;20051;-73
2023/12/11 01:04:25;;;;;;;42.38;4.30;;;;;;;;;;5105954;28;20094;-73
2023/12/11 01:06:52;;;;;;;38.10;4.07;;;;;;;;;;5100111;28;20055;-74
2023/12/11 01:09:19;;;;;;;39.20;3.05;;;;;;;;;;5088778;28;20062;-74
2023/12/11 01:11:47;;;;;;;31.75;3.88;;;;;;;;;;5087943;28;20471;-73
2023/12/11 01:14:14;;;;;;;39.45;4.68;;;;;;;;;;5105123;28;20043;-73
2023/12/11 01:16:42;;;;;;;43.50;5.28;;;;;;;;;;5100693;28;20138;-73
2023/12/11 01:19:10;;;;;;;31.33;3.88;;;;;;;;;;5104150;28;20044;-73
2023/12/11 01:21:38;;;;;;;34.38;4.18;;;;;;;;;;5102979;28;20390;-72
2023/12/11 01:24:05;;;;;;;35.33;3.90;;;;;;;;;;5103434;28;20044;-72
2023/12/11 01:26:33;;;;;;;38.28;3.45;;;;;;;;;;5102538;28;20138;-73
2023/12/11 01:29:00;;;;;;;30.27;3.25;;;;;;;;;;5105959;28;20047;-73
2023/12/11 01:31:27;;;;;;;34.30;3.42;;;;;;;;;;5106788;28;20085;-73
2023/12/11 01:33:54;;;;;;;37.53;4.25;;;;;;;;;;5086779;28;20050;-73
2023/12/11 01:36:23;;;;;;;40.67;4.70;;;;;;;;;;5102028;28;20051;-73
2023/12/11 01:38:50;;;;;;;40.08;3.28;;;;;;;;;;5100440;28;20043;-73
2023/12/11 01:41:18;;;;;;;33.58;3.45;;;;;;;;;;5091452;28;20059;-74
2023/12/11 01:43:52;;;;;;;37.88;3.58;;;;;;;;;;5083747;28;20044;-73
2023/12/11 01:46:20;;;;;;;45.22;4.13;;;;;;;;;;5106209;28;20043;-73
2023/12/11 01:48:47;;;;;;;35.85;3.75;;;;;;;;;;5101415;28;20040;-72
2023/12/11 01:51:15;;;;;;;31.13;3.40;;;;;;;;;;5104310;28;20158;-73
2023/12/11 01:53:43;;;;;;;51.63;4.03;;;;;;;;;;5104462;28;20051;-73
2023/12/11 01:56:11;;;;;;;37.97;3.83;;;;;;;;;;5107949;28;20093;-73
2023/12/11 01:58:38;;;;;;;32.08;3.60;;;;;;;;;;5107984;28;20113;-74
2023/12/11 02:01:07;;;;;;;41.80;4.13;;;;;;;;;;5091789;28;20851;-72
2023/12/11 02:03:34;;;;;;;42.35;3.72;;;;;;;;;;5110046;28;20100;-73
2023/12/11 02:06:02;;;;;;;36.10;4.00;;;;;;;;;;5110165;28;20101;-73
2023/12/11 02:08:29;;;;;;;42.58;3.45;;;;;;;;;;5110308;28;20139;-73
2023/12/11 02:10:58;;;;;;;46.75;3.78;;;;;;;;;;5110314;28;20051;-72
2023/12/11 02:13:25;;;;;;;37.30;3.03;;;;;;;;;;5101697;28;20047;-73
2023/12/11 02:15:56;;;;;;;38.58;3.28;;;;;;;;;;5109779;28;20043;-73
2023/12/11 02:18:23;;;;;;;55.35;4.47;;;;;;;;;;5102746;28;20044;-74
2023/12/11 02:20:50;;;;;;;38.40;3.85;;;;;;;;;;5106567;28;20411;-73
2023/12/11 02:23:21;;;;;;;40.33;5.30;;;;;;;;;;5092374;28;20060;-73
2023/12/11 02:25:55;;;;;;;39.95;3.80;;;;;;;;;;5087693;28;20043;-73
2023/12/11 02:28:24;;;;;;;44.70;4.38;;;;;;;;;;5108305;28;20036;-72
2023/12/11 02:30:52;;;;;;;43.85;5.00;;;;;;;;;;5089024;28;20526;-72
2023/12/11 02:33:19;;;;;;;49.75;3.75;;;;;;;;;;5108697;28;20546;-72
2023/12/11 02:35:46;;;;;;;48.35;4.22;;;;;;;;;;5108883;28;20504;-72
2023/12/11 02:38:14;;;;;;;51.00;5.15;;;;;;;;;;5090562;28;20062;-72
2023/12/11 02:40:41;;;;;;;46.05;5.25;;;;;;;;;;5106160;28;20078;-72
2023/12/11 02:43:08;;;;;;;47.25;4.05;;;;;;;;;;5109472;28;20412;-72
2023/12/11 02:45:37;;;;;;;40.85;4.22;;;;;;;;;;5090662;28;20067;-72
2023/12/11 02:48:04;;;;;;;52.67;5.55;;;;;;;;;;5090320;28;20071;-72
2023/12/11 02:50:32;;;;;;;51.45;4.25;;;;;;;;;;5103576;28;20050;-73
2023/12/11 02:52:59;;;;;;;55.15;5.45;;;;;;;;;;5108355;28;20398;-73
2023/12/11 02:55:27;;;;;;;45.22;4.50;;;;;;;;;;5103505;28;20051;-73
2023/12/11 02:57:55;;;;;;;42.85;4.80;;;;;;;;;;5087989;28;20499;-73
2023/12/11 03:00:22;;;;;;;46.75;4.57;;;;;;;;;;5106760;28;20386;-73
2023/12/11 03:02:51;;;;;;;50.75;4.68;;;;;;;;;;5109319;28;20101;-73
2023/12/11 03:05:18;;;;;;;55.38;5.10;;;;;;;;;;5098262;28;20485;-73
2023/12/11 03:07:45;;;;;;;56.20;5.03;;;;;;;;;;5107362;28;20066;-73
2023/12/11 03:10:13;;;;;;;43.30;4.85;;;;;;;;;;5106625;28;20052;-73
2023/12/11 03:12:40;;;;;;;60.28;5.00;;;;;;;;;;5084733;28;20140;-72
2023/12/11 03:15:08;;;;;;;46.65;4.85;;;;;;;;;;5085955;28;20061;-73
2023/12/11 03:17:36;;;;;;;44.10;4.47;;;;;;;;;;5088512;28;20070;-72
2023/12/11 03:20:06;;;;;;;54.25;4.22;;;;;;;;;;5105717;28;20058;-73
2023/12/11 03:22:33;;;;;;;43.63;4.95;;;;;;;;;;5103831;28;20055;-73
2023/12/11 03:25:00;;;;;;;57.03;4.25;;;;;;;;;;5103884;28;20046;-73
2023/12/11 03:27:28;;;;;;;44.67;4.35;;;;;;;;;;5086970;28;20056;-73
2023/12/11 03:29:55;;;;;;;40.85;3.95;;;;;;;;;;5106816;28;20078;-72
2023/12/11 03:32:22;;;;;;;50.22;4.55;;;;;;;;;;5083663;28;20048;-73
2023/12/11 03:34:49;;;;;;;48.88;4.80;;;;;;;;;;5106850;28;20047;-74
2023/12/11 03:37:18;;;;;;;55.40;4.95;;;;;;;;;;5105777;28;20047;-73
2023/12/11 03:39:45;;;;;;;49.15;5.57;;;;;;;;;;5089847;28;20044;-73
2023/12/11 03:42:13;;;;;;;52.65;4.70;;;;;;;;;;5108924;28;20097;-74
2023/12/11 03:44:40;;;;;;;54.40;5.95;;;;;;;;;;5108338;28;20052;-74
2023/12/11 03:47:07;;;;;;;48.97;5.15;;;;;;;;;;5101143;28;20487;-73
2023/12/11 03:49:35;;;;;;;52.20;5.72;;;;;;;;;;5104903;28;20052;-73
2023/12/11 03:52:02;;;;;;;45.88;4.18;;;;;;;;;;5104549;28;20036;-73
2023/12/11 03:54:31;;;;;;;55.90;4.32;;;;;;;;;;5104131;28;20050;-74
2023/12/11 03:56:58;;;;;;;55.83;4.63;;;;;;;;;;5088154;28;20055;-74
2023/12/11 03:59:26;;;;;;;54.75;5.53;;;;;;;;;;5104204;28;20710;-73
2023/12/11 04:01:53;;;;;;;47.05;5.38;;;;;;;;;;5102039;28;20536;-74
2023/12/11 04:04:20;;;;;;;35.50;4.90;;;;;;;;;;5084361;28;20051;-74
2023/12/11 04:06:48;;;;;;;55.63;6.50;;;;;;;;;;5106567;28;20070;-74
2023/12/11 04:09:15;;;;;;;39.30;5.28;;;;;;;;;;5087601;28;20047;-74
2023/12/11 04:11:45;;;;;;;46.15;4.55;;;;;;;;;;5088604;28;20129;-73
2023/12/11 04:14:12;;;;;;;51.95;4.78;;;;;;;;;;5080023;28;20083;-73
2023/12/11 04:16:42;;;;;;;41.88;3.72;;;;;;;;;;5105042;28;20046;-73
2023/12/11 04:19:09;;;;;;;48.03;4.25;;;;;;;;;;5102873;28;20055;-73
2023/12/11 04:21:37;;;;;;;35.75;4.53;;;;;;;;;;5100278;28;20047;-73
2023/12/11 04:24:04;;;;;;;45.65;3.90;;;;;;;;;;5084372;28;20130;-73
2023/12/11 04:26:32;;;;;;;42.38;3.97;;;;;;;;;;5104928;28;20105;-74
2023/12/11 04:29:00;;;;;;;36.80;3.70;;;;;;;;;;5083672;28;20055;-73
2023/12/11 04:31:28;;;;;;;39.00;3.50;;;;;;;;;;5104204;28;20055;-73
2023/12/11 04:33:55;;;;;;;46.13;4.55;;;;;;;;;;5083752;28;20490;-73
2023/12/11 04:36:22;;;;;;;44.65;4.20;;;;;;;;;;5099276;28;20148;-73
2023/12/11 04:38:50;;;;;;;45.53;4.63;;;;;;;;;;5103302;28;20059;-73
2023/12/11 04:41:17;;;;;;;36.00;4.22;;;;;;;;;;5105557;28;20044;-73
2023/12/11 04:43:44;;;;;;;36.90;3.63;;;;;;;;;;5107448;28;20069;-73
2023/12/11 04:46:13;;;;;;;39.08;3.90;;;;;;;;;;5105057;28;20055;-73
2023/12/11 04:48:40;;;;;;;38.65;4.30;;;;;;;;;;5104544;28;20054;-73
2023/12/11 04:51:08;;;;;;;49.35;4.45;;;;;;;;;;5085295;28;20050;-73
2023/12/11 04:53:35;;;;;;;32.92;4.00;;;;;;;;;;5082262;28;20394;-73
2023/12/11 04:56:06;;;;;;;34.92;3.97;;;;;;;;;;5086656;28;20052;-73
2023/12/11 04:58:33;;;;;;;35.40;4.18;;;;;;;;;;5105020;28;20047;-72
2023/12/11 05:01:01;;;;;;;32.47;4.32;;;;;;;;;;5103741;28;20047;-73
2023/12/11 05:03:29;;;;;;;33.55;4.40;;;;;;;;;;5100230;28;20130;-73
2023/12/11 05:05:57;;;;;;;30.80;2.88;;;;;;;;;;5106419;28;20059;-73
2023/12/11 05:08:25;;;;;;;37.13;3.83;;;;;;;;;;5105317;28;20055;-73
2023/12/11 05:10:52;;;;;;;28.40;3.22;;;;;;;;;;5090490;28;20082;-73
2023/12/11 05:13:19;;;;;;;42.95;3.65;;;;;;;;;;5086193;28;20070;-73
2023/12/11 05:15:47;;;;;;;43.47;3.83;;;;;;;;;;5084473;28;20051;-73
2023/12/11 05:18:14;;;;;;;36.25;3.22;;;;;;;;;;5083353;28;20502;-73
2023/12/11 05:20:42;;;;;;;29.40;4.78;;;;;;;;;;5101140;28;20064;-73
2023/12/11 05:23:10;;;;;;;31.27;3.03;;;;;;;;;;5103394;28;20078;-73
2023/12/11 05:25:37;;;;;;;27.65;2.80;;;;;;;;;;5105970;28;20040;-73
2023/12/11 05:28:04;;;;;;;31.88;3.25;;;;;;;;;;5084776;28;20483;-73
2023/12/11 05:30:32;;;;;;;34.15;3.55;;;;;;;;;;5090694;28;20051;-73
2023/12/11 05:32:59;;;;;;;31.15;3.63;;;;;;;;;;5108325;28;20067;-73
2023/12/11 05:35:27;;;;;;;38.72;3.88;;;;;;;;;;5104122;28;20498;-73
2023/12/11 05:37:57;;;;;;;26.65;2.95;;;;;;;;;;5105579;28;20048;-73
2023/12/11 05:40:25;;;;;;;29.55;3.30;;;;;;;;;;5100067;28;20075;-73
2023/12/11 05:42:52;;;;;;;28.02;3.28;;;;;;;;;;5089727;28;20063;-73
2023/12/11 05:45:19;;;;;;;31.65;4.05;;;;;;;;;;5087802;28;20056;-73
2023/12/11 05:47:47;;;;;;;30.20;3.35;;;;;;;;;;5109175;28;20051;-73
2023/12/11 05:50:14;;;;;;;28.30;3.05;;;;;;;;;;5091398;28;20051;-73
2023/12/11 05:52:42;;;;;;;29.92;3.03;;;;;;;;;;5106335;28;20097;-72
2023/12/11 05:55:11;;;;;;;23.63;3.17;;;;;;;;;;5109021;28;20050;-72
2023/12/11 05:57:38;;;;;;;29.27;2.97;;;;;;;;;;5106732;28;20449;-73
2023/12/11 06:00:06;;;;;;;35.45;3.65;;;;;;;;;;5106376;28;20056;-73
2023/12/11 06:02:34;;;;;;;25.13;3.00;;;;;;;;;;5108303;28;20044;-73
2023/12/11 06:05:01;;;;;;;23.23;2.55;;;;;;;;;;5088020;28;20134;-73
2023/12/11 06:07:28;;;;;;;27.02;2.40;;;;;;;;;;5108808;28;20047;-72
2023/12/11 06:09:55;;;;;;;22.10;2.45;;;;;;;;;;5107543;28;20043;-73
2023/12/11 06:12:24;;;;;;;28.33;4.15;;;;;;;;;;5089482;28;20135;-73
2023/12/11 06:14:51;;;;;;;30.42;2.60;;;;;;;;;;5107733;28;20092;-73
2023/12/11 06:17:19;;;;;;;24.73;2.97;;;;;;;;;;5086968;28;20495;-72
2023/12/11 06:19:47;;;;;;;36.40;3.25;;;;;;;;;;5102756;28;20207;-73
2023/12/11 06:22:14;;;;;;;24.05;3.10;;;;;;;;;;5104738;28;20048;-72
2023/12/11 06:24:42;;;;;;;35.28;2.85;;;;;;;;;;5102961;28;20097;-72
2023/12/11 06:27:09;;;;;;;35.25;2.95;;;;;;;;;;5095205;28;20509;-72
2023/12/11 06:29:38;;;;;;;38.15;2.75;;;;;;;;;;5099318;28;20159;-72
2023/12/11 06:32:06;;;;;;;29.85;2.80;;;;;;;;;;5094599;28;20119;-72
2023/12/11 06:34:33;;;;;;;29.27;3.15;;;;;;;;;;5101498;28;20398;-72
2023/12/11 06:37:00;;;;;;;25.25;2.50;;;;;;;;;;5089345;28;20121;-72
2023/12/11 06:39:28;;;;;;;35.15;3.35;;;;;;;;;;5089346;28;20491;-72
2023/12/11 06:41:55;;;;;;;35.30;3.33;;;;;;;;;;5098012;28;20513;-72
2023/12/11 06:44:22;;;;;;;27.98;2.92;;;;;;;;;;5098304;28;20056;-73
2023/12/11 06:46:52;;;;;;;25.35;2.33;;;;;;;;;;5084709;28;20055;-73
2023/12/11 06:49:20;;;;;;;21.80;2.78;;;;;;;;;;5106161;28;20078;-73
2023/12/11 06:51:47;;;;;;;31.50;2.75;;;;;;;;;;5104645;28;20047;-73
2023/12/11 06:54:14;;;;;;;32.83;2.92;;;;;;;;;;5088765;28;20055;-73
2023/12/11 06:56:42;;;;;;;21.42;2.50;;;;;;;;;;5106339;28;20086;-74
2023/12/11 06:59:09;;;;;;;19.75;2.08;;;;;;;;;;5109097;28;20418;-73
2023/12/11 07:01:37;;;;;;;23.90;2.95;;;;;;;;;;5099769;28;20048;-73
2023/12/11 07:04:07;;;;;;;31.65;2.65;;;;;;;;;;5106447;28;20047;-73
2023/12/11 07:06:34;;;;;;;32.30;2.90;;;;;;;;;;5089305;28;20150;-73
2023/12/11 07:09:02;;;;;;;22.83;2.25;;;;;;;;;;5087838;28;20142;-73
2023/12/11 07:11:30;;;;;;;34.97;3.00;;;;;;;;;;5107320;28;20676;-73
2023/12/11 07:13:57;;;;;;;26.20;2.92;;;;;;;;;;5085030;28;20124;-73
2023/12/11 07:16:24;;;;;;;24.67;2.70;;;;;;;;;;5085104;28;20044;-73
2023/12/11 07:18:52;;;;;;;33.58;3.33;;;;;;;;;;5103847;28;20048;-73
2023/12/11 07:21:21;;;;;;;28.20;2.80;;;;;;;;;;5102290;28;20475;-73
2023/12/11 07:23:50;;;;;;;25.80;2.25;;;;;;;;;;5103117;28;20126;-73
2023/12/11 07:26:17;;;;;;;27.85;2.63;;;;;;;;;;5105643;28;20498;-73
2023/12/11 07:28:44;;;;;;;22.20;2.58;;;;;;;;;;5105401;28;20061;-73
2023/12/11 07:31:11;;;;;;;21.00;2.38;;;;;;;;;;5106998;28;20075;-73
2023/12/11 07:33:39;;;;;;;25.27;2.28;;;;;;;;;;5079735;28;20054;-73
2023/12/11 07:36:06;;;;;;;36.08;2.92;;;;;;;;;;5102761;28;20039;-73
2023/12/11 07:38:35;;;;;;;29.77;2.17;;;;;;;;;;5100638;28;20051;-73
2023/12/11 07:41:03;;;;;;;19.58;2.45;;;;;;;;;;5103824;27;20056;-73
2023/12/11 07:43:30;;;;;;;29.65;2.30;;;;;;;;;;5083601;28;20063;-73
2023/12/11 07:45:57;;;;;;;21.45;1.80;;;;;;;;;;5103239;28;20044;-73
2023/12/11 07:48:25;;;;;;;27.67;2.05;;;;;;;;;;5102409;28;20058;-73
2023/12/11 07:50:52;;;;;;;17.40;1.55;;;;;;;;;;5099965;28;20056;-73
2023/12/11 07:53:19;;;;;;;18.35;1.90;;;;;;;;;;5082300;28;20062;-74
2023/12/11 07:55:48;;;;;;;22.67;2.20;;;;;;;;;;5085232;28;20051;-73
2023/12/11 07:58:16;;;;;;;23.13;2.38;;;;;;;;;;5104759;28;20051;-73
2023/12/11 08:00:43;;;;;;;27.90;2.35;;;;;;;;;;5080941;28;20062;-73
2023/12/11 08:03:10;;;;;;;24.77;2.65;;;;;;;;;;5089169;28;20063;-73
2023/12/11 08:05:38;;;;;;;23.95;2.22;;;;;;;;;;5082790;28;20051;-73
2023/12/11 08:08:06;;;;;;;19.17;2.40;;;;;;;;;;5089039;28;20077;-73
2023/12/11 08:10:33;;;;;;;22.40;2.63;;;;;;;;;;5107411;28;20402;-73
2023/12/11 08:13:02;;;;;;;26.48;2.35;;;;;;;;;;5078913;28;20056;-74
2023/12/11 08:15:29;;;;;;;23.50;2.22;;;;;;;;;;5085925;28;20047;-73
2023/12/11 08:17:57;;;;;;;20.70;2.00;;;;;;;;;;5102723;28;20044;-73
2023/12/11 08:20:24;;;;;;;30.17;2.70;;;;;;;;;;5103632;28;20066;-74
2023/12/11 08:22:51;;;;;;;23.20;2.25;;;;;;;;;;5104046;28;20110;-73
2023/12/11 08:25:19;;;;;;;31.60;2.53;;;;;;;;;;5102133;28;20127;-73
2023/12/11 08:27:46;;;;;;;24.67;2.40;;;;;;;;;;5104531;28;20043;-73
2023/12/11 08:30:15;;;;;;;23.10;3.08;;;;;;;;;;5106640;28;20050;-73
2023/12/11 08:32:42;;;;;;;22.80;2.33;;;;;;;;;;5089508;28;20055;-73
2023/12/11 08:35:10;;;;;;;24.77;2.60;;;;;;;;;;5088660;28;20051;-73
2023/12/11 08:37:37;;;;;;;22.25;1.73;;;;;;;;;;5107883;28;20468;-73
2023/12/11 08:40:05;;;;;;;27.15;2.45;;;;;;;;;;5108403;28;20058;-73
2023/12/11 08:42:33;;;;;;;24.90;3.15;;;;;;;;;;5088291;28;20074;-73
2023/12/11 08:45:01;;;;;;;24.40;2.20;;;;;;;;;;5105268;28;20047;-73
2023/12/11 08:47:30;;;;;;;22.42;2.28;;;;;;;;;;5086320;28;20048;-73
2023/12/11 08:49:57;;;;;;;20.02;2.08;;;;;;;;;;5107003;28;20521;-73
2023/12/11 08:52:25;;;;;;;28.25;2.28;;;;;;;;;;5103418;28;20048;-73
2023/12/11 08:54:52;;;;;;;22.33;2.25;;;;;;;;;;5106777;28;20058;-73
2023/12/11 08:57:19;;;;;;;22.25;1.80;;;;;;;;;;5103878;28;20487;-74
2023/12/11 08:59:47;;;;;;;19.40;1.63;;;;;;;;;;5081089;28;20528;-73
2023/12/11 09:02:15;;;;;;;16.33;1.20;;;;;;;;;;5089191;28;20167;-73
2023/12/11 09:04:44;;;;;;;17.55;1.67;;;;;;;;;;5103957;28;20064;-74
2023/12/11 09:07:11;;;;;;;14.70;1.48;;;;;;;;;;5106087;28;20146;-73
2023/12/11 09:09:38;;;;;;;21.90;2.13;;;;;;;;;;5087919;28;20068;-73
2023/12/11 09:12:06;;;;;;;19.35;2.03;;;;;;;;;;5084460;28;20066;-73
2023/12/11 09:14:34;;;;;;;22.88;2.13;;;;;;;;;;5109222;28;20051;-74
2023/12/11 09:17:01;;;;;;;24.00;1.83;;;;;;;;;;5106951;28;20051;-73
2023/12/11 09:19:29;;;;;;;21.98;1.80;;;;;;;;;;5106108;28;20052;-73
2023/12/11 09:21:57;;;;;;;16.02;1.75;;;;;;;;;;5101462;28;20463;-74
2023/12/11 09:24:25;;;;;;;25.85;2.03;;;;;;;;;;5099904;28;20075;-73
2023/12/11 09:26:52;;;;;;;28.27;2.05;;;;;;;;;;5083548;28;20048;-73
2023/12/11 09:29:19;;;;;;;30.02;2.22;;;;;;;;;;5107474;28;20051;-73
2023/12/11 09:31:46;;;;;;;30.15;2.30;;;;;;;;;;5089861;27;20049;-73
2023/12/11 09:34:14;;;;;;;18.83;1.75;;;;;;;;;;5109060;28;20062;-73
2023/12/11 09:36:41;;;;;;;24.88;2.90;;;;;;;;;;5104960;28;20046;-73
2023/12/11 09:39:10;;;;;;;31.17;2.47;;;;;;;;;;5110103;28;20487;-73
2023/12/11 09:41:37;;;;;;;23.38;2.25;;;;;;;;;;5084325;28;20047;-73
2023/12/11 09:44:05;;;;;;;30.67;2.85;;;;;;;;;;5104916;28;20502;-73
2023/12/11 09:46:38;;;;;;;23.98;2.20;;;;;;;;;;5087848;28;20055;-74
2023/12/11 09:49:06;;;;;;;19.55;1.80;;;;;;;;;;5107677;28;20429;-73
2023/12/11 09:51:33;;;;;;;31.20;2.55;;;;;;;;;;5098917;28;20056;-74
2023/12/11 09:54:00;;;;;;;20.35;2.17;;;;;;;;;;5099858;28;20047;-73
2023/12/11 09:56:29;;;;;;;32.63;2.67;;;;;;;;;;5107022;28;20055;-73
2023/12/11 09:58:57;;;;;;;29.15;2.10;;;;;;;;;;5089508;28;20066;-74
2023/12/11 10:01:25;;;;;;;20.70;2.30;;;;;;;;;;5084953;28;20044;-74
2023/12/11 10:03:52;;;;;;;21.10;2.47;;;;;;;;;;5107813;28;20112;-73
2023/12/11 10:06:20;;;;;;;26.00;4.47;;;;;;;;;;5105160;28;20056;-73
2023/12/11 10:08:52;;;;;;;24.98;2.03;;;;;;;;;;5104834;28;20048;-73
2023/12/11 10:11:22;;;;;;;24.98;2.50;;;;;;;;;;5102042;28;20104;-73
2023/12/11 10:13:51;;;;;;;29.60;2.92;;;;;;;;;;5105382;28;20581;-74
2023/12/11 10:16:33;;;;;;;27.75;1.88;;;;;;;;;;5104904;28;20043;-74
2023/12/11 10:19:01;;;;;;;25.25;2.33;;;;;;;;;;5084097;28;20052;-74
2023/12/11 10:21:36;;;;;;;23.45;2.13;;;;;;;;;;5099518;28;20039;-73
2023/12/11 10:24:04;;;;;;;19.65;2.17;;;;;;;;;;5087690;28;20052;-74
2023/12/11 10:26:32;;;;;;;28.77;2.20;;;;;;;;;;5100848;28;20052;-73
2023/12/11 10:29:14;;;;;;;25.13;2.20;;;;;;;;;;5089454;28;20066;-74
2023/12/11 10:31:43;;;;;;;20.50;1.52;;;;;;;;;;5085051;28;20052;-74
2023/12/11 10:34:10;;;;;;;18.45;1.75;;;;;;;;;;5103360;28;20494;-74
2023/12/11 10:36:47;;;;;;;24.15;1.95;;;;;;;;;;5080093;28;20055;-73
2023/12/11 10:39:15;;;;;;;16.33;1.90;;;;;;;;;;5087837;28;20134;-74
2023/12/11 10:41:44;;;;;;;15.77;1.40;;;;;;;;;;5103879;28;20093;-74
2023/12/11 10:44:20;;;;;;;18.25;1.77;;;;;;;;;;5108347;28;20051;-74
2023/12/11 10:46:50;;;;;;;25.08;1.95;;;;;;;;;;5102971;28;20062;-73
2023/12/11 10:49:19;;;;;;;13.80;1.52;;;;;;;;;;5102256;28;20040;-74
2023/12/11 10:51:47;;;;;;;7.25;0.82;;;;;;;;;;5084072;28;20066;-74
2023/12/11 10:54:14;;;;;;;8.13;1.20;;;;;;;;;;5106833;28;20047;-74
2023/12/11 10:56:43;;;;;;;8.52;0.93;;;;;;;;;;5099003;28;20798;-74
2023/12/11 10:59:11;;;;;;;8.88;1.00;;;;;;;;;;5106008;28;20054;-74
2023/12/11 11:01:39;;;;;;;7.75;1.20;;;;;;;;;;5097192;28;20051;-73
2023/12/11 11:04:09;;;;;;;10.70;1.15;;;;;;;;;;5085458;28;20101;-74
2023/12/11 11:06:39;;;;;;;5.28;0.80;;;;;;;;;;5104542;28;20564;-74
2023/12/11 11:09:09;;;;;;;7.10;0.93;;;;;;;;;;5105435;28;20603;-74
2023/12/11 11:11:39;;;;;;;11.20;1.40;;;;;;;;;;5103512;28;20105;-74
2023/12/11 11:14:27;;;;;;;10.25;1.17;;;;;;;;;;5087930;28;20055;-74
2023/12/11 11:16:55;;;;;;;9.85;1.27;;;;;;;;;;5106488;28;20051;-74
2023/12/11 11:19:24;;;;;;;15.80;1.73;;;;;;;;;;5105666;28;20375;-74
2023/12/11 11:22:10;;;;;;;12.93;2.00;;;;;;;;;;5105699;28;20088;-74
2023/12/11 11:24:37;;;;;;;21.80;2.10;;;;;;;;;;5103207;27;20052;-74
2023/12/11 11:27:06;;;;;;;30.30;2.47;;;;;;;;;;5083851;28;20055;-73
2023/12/11 11:29:40;;;;;;;21.58;2.90;;;;;;;;;;5101326;28;20091;-74
2023/12/11 11:32:07;;;;;;;21.30;3.33;;;;;;;;;;5097096;28;20051;-74
2023/12/11 11:34:52;;;;;;;18.73;2.33;;;;;;;;;;5098983;28;20055;-74
2023/12/11 11:37:41;;;;;;;15.48;1.65;;;;;;;;;;5097217;28;20039;-74
2023/12/11 11:40:09;;;;;;;22.35;2.10;;;;;;;;;;5107440;28;20055;-74
2023/12/11 11:42:36;;;;;;;15.13;1.58;;;;;;;;;;5107993;28;20471;-74
2023/12/11 11:45:05;;;;;;;21.40;2.72;;;;;;;;;;5091432;28;20054;-74
2023/12/11 11:47:32;;;;;;;19.67;2.05;;;;;;;;;;5105257;28;20047;-74
2023/12/11 11:50:05;;;;;;;9.93;1.95;;;;;;;;;;5084233;28;20051;-73
2023/12/11 11:52:35;;;;;;;12.15;1.23;;;;;;;;;;5104666;28;20824;-73
2023/12/11 11:55:04;;;;;;;13.68;1.38;;;;;;;;;;5107168;28;20491;-74
2023/12/11 11:57:32;;;;;;;8.00;1.30;;;;;;;;;;5086062;28;20039;-73
2023/12/11 12:00:00;;;;;;;18.30;1.30;;;;;;;;;;5086559;28;20056;-74
2023/12/11 12:02:27;;;;;;;8.70;1.10;;;;;;;;;;5108182;28;20119;-74
2023/12/11 12:04:55;;;;;;;13.18;1.60;;;;;;;;;;5083588;28;20533;-74
2023/12/11 12:07:22;;;;;;;8.65;1.05;;;;;;;;;;5089051;28;20555;-73
2023/12/11 12:09:53;;;;;;;7.13;0.73;;;;;;;;;;5089797;28;20062;-73
2023/12/11 12:12:20;;;;;;;10.30;1.38;;;;;;;;;;5102688;28;20483;-74
2023/12/11 12:14:47;;;;;;;13.02;1.35;;;;;;;;;;5102257;28;20051;-74
2023/12/11 12:17:15;;;;;;;11.50;1.30;;;;;;;;;;5100273;28;20052;-74
2023/12/11 12:19:42;;;;;;;10.45;1.00;;;;;;;;;;5100669;28;20051;-75
2023/12/11 12:22:11;;;;;;;14.60;1.27;;;;;;;;;;5106213;27;20060;-74
2023/12/11 12:24:40;;;;;;;8.13;0.63;;;;;;;;;;5105773;28;20044;-74
2023/12/11 12:27:10;;;;;;;7.28;0.85;;;;;;;;;;5102400;28;20088;-74
2023/12/11 12:29:38;;;;;;;10.82;1.20;;;;;;;;;;5094272;28;20410;-74
2023/12/11 12:32:06;;;;;;;5.82;0.80;;;;;;;;;;5081724;28;20056;-73
2023/12/11 12:34:34;;;;;;;15.30;1.00;;;;;;;;;;5102884;28;20044;-74
2023/12/11 12:37:03;;;;;;;7.35;1.00;;;;;;;;;;5098356;28;20495;-74
2023/12/11 12:39:30;;;;;;;7.13;1.23;;;;;;;;;;5104096;28;20052;-74
2023/12/11 12:41:58;;;;;;;9.23;1.05;;;;;;;;;;5098269;28;20155;-73
2023/12/11 12:44:27;;;;;;;8.95;1.08;;;;;;;;;;5099409;28;20861;-74
2023/12/11 12:46:54;;;;;;;7.80;1.35;;;;;;;;;;5097331;28;20048;-74
2023/12/11 12:49:22;;;;;;;7.90;0.90;;;;;;;;;;5102318;28;20506;-74
2023/12/11 12:51:50;;;;;;;6.22;0.80;;;;;;;;;;5102710;28;20047;-74
2023/12/11 12:54:18;;;;;;;7.97;0.98;;;;;;;;;;5100492;28;20040;-74
2023/12/11 12:56:46;;;;;;;11.27;1.52;;;;;;;;;;5087537;28;20047;-74
2023/12/11 12:59:13;;;;;;;10.32;1.02;;;;;;;;;;5103514;28;20039;-73
2023/12/11 13:01:42;;;;;;;14.77;0.90;;;;;;;;;;5101181;28;20391;-74
2023/12/11 13:04:10;;;;;;;8.52;0.70;;;;;;;;;;5105388;28;20059;-74
2023/12/11 13:06:38;;;;;;;7.93;0.88;;;;;;;;;;5083420;28;20048;-74
2023/12/11 13:09:08;;;;;;;9.82;0.77;;;;;;;;;;5086502;28;20122;-74
2023/12/11 13:11:42;;;;;;;6.72;0.82;;;;;;;;;;5098711;28;20558;-74
2023/12/11 13:14:11;;;;;;;3.08;0.65;;;;;;;;;;5085507;28;20044;-74
2023/12/11 13:16:39;;;;;;;5.43;0.95;;;;;;;;;;5077683;28;20509;-75
2023/12/11 13:19:08;;;;;;;7.72;0.70;;;;;;;;;;5080444;28;20091;-74
2023/12/11 13:21:35;;;;;;;9.70;1.00;;;;;;;;;;5099787;28;20074;-73
2023/12/11 13:24:02;;;;;;;9.93;0.90;;;;;;;;;;5105242;28;20062;-73
2023/12/11 13:26:30;;;;;;;7.13;0.55;;;;;;;;;;5086269;28;20356;-75
2023/12/11 13:28:57;;;;;;;8.48;0.80;;;;;;;;;;5106202;28;20558;-74
2023/12/11 13:31:25;;;;;;;5.40;1.10;;;;;;;;;;5102966;28;20594;-74
2023/12/11 13:33:52;;;;;;;10.80;0.70;;;;;;;;;;5104311;28;20060;-74
2023/12/11 13:36:21;;;;;;;4.28;0.50;;;;;;;;;;5082089;28;20052;-74
2023/12/11 13:38:49;;;;;;;5.60;0.70;;;;;;;;;;5103859;28;20083;-75
2023/12/11 13:41:16;;;;;;;4.88;0.55;;;;;;;;;;5100394;28;20047;-74
2023/12/11 13:43:43;;;;;;;7.65;0.88;;;;;;;;;;5100971;28;20055;-74
2023/12/11 13:46:10;;;;;;;5.80;0.50;;;;;;;;;;5078017;28;20056;-74
2023/12/11 13:48:38;;;;;;;9.07;0.88;;;;;;;;;;5076459;28;20054;-74
2023/12/11 13:51:06;;;;;;;9.93;1.10;;;;;;;;;;5085602;28;20063;-74
2023/12/11 13:53:35;;;;;;;5.32;0.50;;;;;;;;;;5085126;28;20499;-74
2023/12/11 13:56:02;;;;;;;6.72;0.75;;;;;;;;;;5085620;28;20059;-73
2023/12/11 13:58:30;;;;;;;8.75;1.58;;;;;;;;;;5073486;28;20048;-72
2023/12/11 14:00:57;;;;;;;4.53;0.60;;;;;;;;;;5097380;28;20055;-73
2023/12/11 14:03:24;;;;;;;6.68;1.08;;;;;;;;;;5100521;28;20048;-73
2023/12/11 14:05:52;;;;;;;7.85;0.63;;;;;;;;;;5101478;28;20040;-73
2023/12/11 14:08:19;;;;;;;8.68;0.70;;;;;;;;;;5086339;28;20047;-74
2023/12/11 14:10:48;;;;;;;9.70;0.80;;;;;;;;;;5093099;28;20055;-73
2023/12/11 14:13:15;;;;;;;9.00;0.85;;;;;;;;;;5107117;28;20040;-73
2023/12/11 14:15:44;;;;;;;4.75;0.55;;;;;;;;;;5088167;28;20054;-74
2023/12/11 14:18:12;;;;;;;8.85;0.93;;;;;;;;;;5103517;28;20079;-73
2023/12/11 14:20:39;;;;;;;8.68;0.80;;;;;;;;;;5105017;28;20063;-73
2023/12/11 14:23:07;;;;;;;7.97;0.65;;;;;;;;;;5107204;28;20108;-73
2023/12/11 14:25:34;;;;;;;5.38;0.77;;;;;;;;;;5100063;28;20044;-73
2023/12/11 14:28:04;;;;;;;5.90;0.70;;;;;;;;;;5106171;28;20040;-73
2023/12/11 14:30:34;;;;;;;11.10;0.60;;;;;;;;;;5106095;28;20051;-72
2023/12/11 14:33:01;;;;;;;6.68;0.40;;;;;;;;;;5095378;28;20089;-73
2023/12/11 14:35:28;;;;;;;3.22;0.60;;;;;;;;;;5078992;28;20134;-73